createdAt,value
2023-05-19T00:01:19.131Z,1.33
2023-05-19T00:06:26.353Z,1.17
2023-05-19T00:11:30.367Z,1.50
2023-05-19T00:16:34.686Z,1.67
2023-05-19T00:21:39.602Z,1.30
2023-05-19T00:26:42.943Z,1.35
2023-05-19T00:31:46.623Z,1.40
2023-05-19T00:36:51.938Z,1.10
2023-05-19T00:41:55.428Z,2.30
2023-05-19T00:46:58.820Z,1.40
2023-05-19T00:52:06.101Z,1.52
2023-05-19T00:57:09.592Z,1.40
2023-05-19T01:02:13.369Z,1.67
2023-05-19T01:07:18.764Z,1.52
2023-05-19T01:12:22.248Z,1.50
2023-05-19T01:17:34.932Z,1.50
2023-05-19T01:23:09.042Z,1.30
2023-05-19T01:28:30.400Z,1.50
2023-05-19T01:33:35.954Z,1.40
2023-05-19T01:38:40.541Z,1.40
2023-05-19T01:43:45.161Z,2.00
2023-05-19T01:48:50.925Z,1.77
2023-05-19T01:53:54.941Z,1.70
2023-05-19T01:59:05.375Z,1.63
2023-05-19T02:04:23.613Z,1.48
2023-05-19T02:09:34.790Z,1.58
2023-05-19T02:14:45.332Z,1.73
2023-05-19T02:19:50.664Z,1.40
2023-05-19T02:30:00.057Z,3.22
2023-05-19T02:35:05.611Z,1.75
2023-05-19T02:40:09.629Z,2.13
2023-05-19T02:45:13.181Z,2.13
2023-05-19T02:50:19.619Z,2.03
2023-05-19T02:55:23.008Z,1.85
2023-05-19T03:00:26.342Z,2.33
2023-05-19T03:05:31.512Z,2.25
2023-05-19T03:10:34.840Z,1.92
2023-05-19T03:15:38.357Z,2.30
2023-05-19T03:20:44.721Z,1.73
2023-05-19T03:25:48.361Z,2.05
2023-05-19T03:30:51.953Z,1.98
2023-05-19T03:36:00.400Z,2.38
2023-05-19T03:41:07.417Z,1.63
2023-05-19T03:51:32.211Z,1.83
2023-05-19T03:56:43.818Z,1.65
2023-05-19T04:01:47.677Z,2.28
2023-05-19T04:06:52.468Z,1.60
2023-05-19T04:11:56.952Z,1.92
2023-05-19T04:17:01.212Z,1.80
2023-05-19T04:22:06.169Z,2.03
2023-05-19T04:27:12.135Z,1.55
2023-05-19T04:32:19.877Z,1.65
2023-05-19T04:37:25.991Z,1.67
2023-05-19T04:42:33.087Z,1.77
2023-05-19T04:47:38.291Z,2.10
2023-05-19T04:52:45.617Z,1.73
2023-05-19T04:57:49.383Z,1.80
2023-05-19T05:02:52.835Z,1.40
2023-05-19T05:13:06.389Z,2.03
2023-05-19T05:18:11.229Z,1.85
2023-05-19T05:23:16.952Z,1.60
2023-05-19T05:28:23.004Z,1.90
2023-05-19T05:33:27.378Z,2.75
2023-05-19T05:38:32.755Z,1.63
2023-05-19T05:43:36.658Z,1.92
2023-05-19T05:58:55.382Z,1.90
2023-05-19T06:03:58.921Z,1.27
2023-05-19T06:09:04.618Z,1.88
2023-05-19T06:14:08.964Z,1.98
2023-05-19T06:19:38.455Z,2.50
2023-05-19T06:24:43.404Z,1.92
2023-05-19T06:29:47.900Z,2.00
2023-05-19T06:34:54.658Z,1.55
2023-05-19T06:39:59.969Z,2.33
2023-05-19T06:45:04.819Z,1.90
2023-05-19T06:50:10.583Z,2.00
2023-05-19T06:55:19.065Z,1.85
2023-05-19T07:00:23.986Z,2.20
2023-05-19T07:05:29.281Z,1.65
2023-05-19T07:10:37.067Z,1.80
2023-05-19T07:15:45.330Z,2.28
2023-05-19T07:20:51.798Z,1.95
2023-05-19T07:25:56.985Z,2.55
2023-05-19T07:31:01.499Z,1.98
2023-05-19T07:36:05.580Z,1.67
2023-05-19T07:41:10.965Z,1.93
2023-05-19T07:46:15.408Z,1.73
2023-05-19T07:51:19.455Z,1.65
2023-05-19T07:56:24.958Z,1.60
2023-05-19T08:01:30.726Z,2.13
2023-05-19T08:06:35.222Z,1.48
2023-05-19T08:11:40.143Z,1.30
2023-05-19T08:16:45.096Z,1.40
2023-05-19T08:21:49.760Z,1.70
2023-05-19T08:26:54.745Z,1.50
2023-05-19T08:37:03.144Z,1.77
2023-05-19T08:42:09.842Z,1.30
2023-05-19T08:47:15.488Z,1.63
2023-05-19T08:52:25.340Z,1.30
2023-05-19T08:57:30.110Z,1.70
2023-05-19T09:02:34.277Z,1.52
2023-05-19T09:07:38.231Z,1.63
2023-05-19T09:12:48.779Z,1.55
2023-05-19T09:18:03.473Z,1.30
2023-05-19T09:28:12.745Z,1.88
2023-05-19T09:33:19.501Z,1.10
2023-05-19T09:38:24.558Z,1.17
2023-05-19T09:43:29.837Z,1.10
2023-05-19T09:48:34.571Z,1.13
2023-05-19T09:53:39.169Z,1.50
2023-05-19T09:58:44.074Z,0.88
2023-05-19T10:03:47.601Z,1.10
2023-05-19T10:08:52.623Z,1.08
2023-05-19T10:13:57.914Z,0.90
2023-05-19T10:19:03.157Z,1.00
2023-05-19T10:24:06.857Z,1.10
2023-05-19T10:29:12.528Z,1.10
2023-05-19T10:34:31.096Z,1.23
2023-05-19T10:39:36.094Z,1.38
2023-05-19T10:49:52.468Z,1.10
2023-05-19T10:54:56.216Z,0.90
2023-05-19T11:00:11.527Z,1.10
2023-05-19T11:05:20.442Z,1.00
2023-05-19T11:10:24.126Z,1.08
2023-05-19T11:15:29.205Z,0.90
2023-05-19T11:20:34.925Z,1.00
2023-05-19T11:25:43.476Z,1.23
2023-05-19T11:30:52.491Z,0.98
2023-05-19T11:36:00.104Z,0.90
2023-05-19T11:41:03.967Z,1.33
2023-05-19T11:46:09.871Z,1.17
2023-05-19T11:51:13.537Z,0.98
2023-05-19T11:56:16.913Z,1.08
2023-05-19T12:01:28.585Z,0.90
2023-05-19T12:06:32.178Z,1.17
2023-05-19T12:11:35.540Z,1.30
2023-05-19T12:16:41.153Z,1.20
2023-05-19T12:21:45.072Z,1.23
2023-05-19T12:26:50.442Z,0.95
2023-05-19T12:31:55.572Z,1.08
2023-05-19T12:36:58.967Z,1.45
2023-05-19T12:42:03.623Z,0.95
2023-05-19T12:47:09.089Z,1.13
2023-05-19T12:52:13.942Z,1.00
2023-05-19T12:57:18.433Z,1.00
2023-05-19T13:02:24.644Z,1.02
2023-05-19T13:07:28.107Z,1.20
2023-05-19T13:12:31.389Z,1.00
2023-05-19T13:17:36.802Z,1.13
2023-05-19T13:22:40.499Z,1.80
2023-05-19T13:27:46.065Z,1.10
2023-05-19T13:32:52.689Z,1.05
2023-05-19T13:37:56.734Z,1.10
2023-05-19T13:43:02.058Z,1.33
2023-05-19T13:48:07.538Z,1.50
2023-05-19T13:53:11.629Z,1.05
2023-05-19T13:58:17.008Z,1.13
2023-05-19T14:03:22.079Z,1.00
2023-05-19T14:13:32.018Z,1.07
2023-05-19T14:18:39.102Z,1.33
2023-05-19T14:23:42.543Z,1.00
2023-05-19T14:28:46.093Z,1.40
2023-05-19T14:33:51.500Z,1.10
2023-05-19T14:38:54.892Z,1.40
2023-05-19T14:43:58.314Z,1.00
2023-05-19T14:49:03.588Z,1.25
2023-05-19T14:54:07.138Z,1.10
2023-05-19T14:59:10.718Z,1.20
2023-05-19T15:04:15.647Z,1.30
2023-05-19T15:09:19.665Z,1.33
2023-05-19T15:21:07.316Z,1.17
2023-05-19T15:26:10.787Z,0.98
2023-05-19T16:01:31.653Z,1.15
2023-05-19T16:11:38.308Z,1.30
2023-05-19T16:16:44.691Z,1.40
2023-05-19T16:21:48.682Z,1.30
2023-05-19T16:26:53.791Z,1.55
2023-05-19T16:31:58.798Z,1.38
2023-05-19T16:37:02.741Z,1.20
2023-05-19T16:42:06.204Z,1.38
2023-05-19T16:47:11.227Z,1.27
2023-05-19T16:52:14.652Z,1.40
2023-05-19T16:57:18.601Z,1.40
2023-05-19T17:02:23.620Z,1.10
2023-05-19T17:07:29.182Z,1.48
2023-05-19T17:12:32.603Z,1.58
2023-05-19T17:17:37.335Z,1.02
2023-05-19T17:22:41.433Z,1.42
2023-05-19T17:27:44.859Z,1.70
2023-05-19T17:32:50.064Z,1.60
2023-05-19T17:37:53.637Z,1.58
2023-05-19T17:42:57.124Z,1.60
2023-05-19T17:48:02.254Z,1.50
2023-05-19T17:53:06.571Z,1.98
2023-05-19T17:58:10.418Z,1.67
2023-05-19T18:03:16.427Z,1.70
2023-05-19T18:08:20.894Z,1.75
2023-05-19T18:13:26.454Z,1.48
2023-05-19T18:18:31.382Z,1.67
2023-05-19T18:23:34.751Z,1.75
2023-05-19T18:28:38.314Z,1.90
2023-05-19T18:33:43.554Z,1.60
2023-05-19T18:38:47.990Z,1.63
2023-05-19T18:43:51.406Z,1.70
2023-05-19T18:48:56.254Z,1.73
2023-05-19T18:53:59.753Z,1.98
2023-05-19T18:59:03.948Z,1.73
2023-05-19T19:04:09.479Z,1.25
2023-05-19T19:09:13.939Z,2.00
2023-05-19T19:14:17.397Z,2.50
2023-05-19T19:19:23.852Z,2.53
2023-05-19T19:24:28.532Z,2.10
2023-05-19T19:29:31.926Z,2.13
2023-05-19T19:34:36.691Z,2.05
2023-05-19T19:39:40.227Z,1.67
2023-05-19T19:44:43.555Z,2.20
2023-05-19T19:49:49.279Z,3.65
2023-05-19T19:54:52.751Z,2.35
2023-05-19T19:59:59.133Z,2.03
2023-05-19T20:05:04.508Z,1.90
2023-05-19T20:15:12.254Z,2.17
2023-05-19T20:20:17.373Z,1.92
2023-05-19T20:25:21.435Z,2.25
2023-05-19T20:30:25.014Z,1.65
2023-05-19T20:35:30.169Z,1.80
2023-05-19T20:40:33.634Z,1.80
2023-05-19T20:45:37.356Z,2.00
2023-05-19T20:50:42.223Z,1.55
2023-05-19T20:55:46.329Z,2.13
2023-05-19T21:00:56.968Z,1.87
2023-05-19T21:06:01.863Z,1.92
2023-05-19T21:11:05.793Z,2.10
2023-05-19T21:16:09.340Z,1.88
2023-05-19T21:21:14.013Z,2.25
2023-05-19T21:26:17.486Z,1.87
2023-05-19T21:31:20.932Z,2.08
2023-05-19T21:36:25.698Z,2.03
2023-05-19T21:41:31.096Z,1.98
2023-05-19T21:51:39.155Z,1.80
2023-05-19T21:56:42.773Z,2.00
2023-05-19T22:01:46.798Z,2.17
2023-05-19T22:06:51.627Z,2.00
2023-05-19T22:11:55.422Z,2.40
2023-05-19T22:16:59.062Z,2.03
2023-05-19T22:22:12.939Z,2.40
2023-05-19T22:27:17.691Z,2.83
2023-05-19T22:32:21.269Z,2.50
2023-05-19T22:37:26.160Z,2.35
2023-05-19T22:42:29.646Z,2.20
2023-05-19T22:47:33.118Z,2.05
2023-05-19T22:52:38.331Z,2.45
2023-05-19T22:57:41.655Z,2.50
2023-05-19T23:02:45.106Z,2.20
2023-05-19T23:07:49.841Z,2.60
2023-05-19T23:12:53.639Z,2.85
2023-05-19T23:17:57.349Z,2.40
2023-05-19T23:23:02.740Z,2.00
2023-05-19T23:33:13.550Z,2.17
2023-05-19T23:38:18.323Z,2.38
2023-05-19T23:43:21.646Z,2.63
2023-05-19T23:48:25.443Z,2.42
2023-05-19T23:53:30.187Z,2.13
2023-05-19T23:58:33.567Z,2.45
